Time;durP1;ratioP1;P1;durP2;ratioP2;P2;SDS_P1;SDS_P2;PMS_P1;PMS_P2;Temp;Humidity;BMP_temperature;BMP_pressure;BME280_temperature;BME280_humidity;BME280_pressure;Samples;Min_cycle;Max_cycle;Signal;HPM_P1;HPM_P2
2022/02/25 00:04:43;;;;;;;7.10;4.00;;;;;;;6.90;55.50;98754.83;447338;1271;143159;-64
2022/02/25 00:14:50;;;;;;;7.30;3.40;;;;;;;6.93;55.40;98753.61;447147;1271;141190;-62
2022/02/25 00:24:55;;;;;;;7.80;3.80;;;;;;;6.90;55.23;98755.55;446686;1271;140609;-66
2022/02/25 00:35:01;;;;;;;8.10;3.60;;;;;;;6.90;55.20;98753.98;447422;1271;141422;-66
2022/02/25 00:45:09;;;;;;;6.50;3.40;;;;;;;6.89;54.97;98754.37;446495;1271;141496;-67
2022/02/25 00:55:15;;;;;;;5.50;3.20;;;;;;;6.76;54.84;98747.52;437493;1271;140922;-64
2022/02/25 01:05:21;;;;;;;8.30;3.30;;;;;;;6.60;54.94;98742.92;444298;1269;140339;-61
2022/02/25 01:15:28;;;;;;;6.80;3.60;;;;;;;6.44;55.30;98738.67;442601;1271;141304;-65
2022/02/25 01:25:32;;;;;;;4.70;2.80;;;;;;;6.33;55.51;98734.81;432453;1271;142080;-62
2022/02/25 01:35:38;;;;;;;4.40;2.70;;;;;;;6.20;55.71;98727.39;439607;1271;140857;-63
2022/02/25 01:45:44;;;;;;;6.70;3.40;;;;;;;6.02;56.09;98732.61;444086;1271;141185;-63
2022/02/25 01:55:50;;;;;;;3.90;3.00;;;;;;;5.88;56.45;98726.59;443385;1271;140539;-67
2022/02/25 02:05:56;;;;;;;5.10;3.30;;;;;;;5.83;56.59;98722.19;447141;1271;141980;-66
2022/02/25 02:16:02;;;;;;;4.80;3.50;;;;;;;5.99;56.59;98721.85;437516;1271;141457;-65
2022/02/25 02:26:08;;;;;;;5.10;3.20;;;;;;;6.15;56.45;98728.94;441393;1271;150865;-65
2022/02/25 02:36:14;;;;;;;4.60;2.70;;;;;;;6.22;56.42;98744.46;446416;1270;156245;-66
2022/02/25 02:46:20;;;;;;;4.20;3.00;;;;;;;6.27;56.56;98754.08;447365;1270;141887;-65
2022/02/25 02:56:27;;;;;;;3.90;2.90;;;;;;;6.22;56.79;98764.84;447303;1270;141483;-65
2022/02/25 03:06:34;;;;;;;7.50;4.30;;;;;;;6.21;57.32;98755.80;446269;1271;143728;-65
2022/02/25 03:16:40;;;;;;;7.00;3.20;;;;;;;6.17;57.68;98775.36;446773;1273;140919;-65
2022/02/25 03:26:46;;;;;;;5.30;3.40;;;;;;;6.13;58.25;98796.09;447342;1270;141766;-65
2022/02/25 03:36:52;;;;;;;3.90;2.00;;;;;;;6.16;58.49;98814.36;446576;1270;196230;-65
2022/02/25 03:46:58;;;;;;;0.80;0.60;;;;;;;6.22;58.55;98837.77;440492;1270;141673;-65
2022/02/25 03:57:05;;;;;;;0.80;0.50;;;;;;;5.96;58.39;98876.77;442630;1270;141436;-65
2022/02/25 04:07:10;;;;;;;1.20;0.30;;;;;;;5.59;58.94;98913.55;445773;1270;140971;-66
2022/02/25 04:17:19;;;;;;;0.30;0.30;;;;;;;5.27;59.62;98932.08;430591;1270;141265;-64
2022/02/25 04:27:25;;;;;;;1.00;0.80;;;;;;;4.98;61.02;98959.23;429795;1270;141709;-64
2022/02/25 04:37:31;;;;;;;2.20;1.20;;;;;;;4.64;63.03;98990.38;431964;1270;141838;-65
2022/02/25 04:47:37;;;;;;;1.90;1.70;;;;;;;4.26;64.58;99021.82;435291;1270;144984;-65
2022/02/25 04:57:44;;;;;;;2.10;2.00;;;;;;;3.81;65.86;99045.50;446564;1269;141725;-65
2022/02/25 05:07:50;;;;;;;1.80;1.70;;;;;;;3.28;67.13;99066.32;444775;1270;142458;-65
2022/02/25 05:28:19;;;;;;;2.00;1.80;;;;;;;2.99;68.95;99102.83;447267;1270;142175;-65
2022/02/25 05:38:25;;;;;;;2.50;2.30;;;;;;;2.88;69.32;99121.75;437902;1272;142464;-65
2022/02/25 05:48:31;;;;;;;2.70;2.00;;;;;;;2.83;69.46;99139.42;440557;1270;141768;-65
2022/02/25 05:58:37;;;;;;;3.30;2.10;;;;;;;2.79;69.74;99158.39;444789;1270;142218;-64
2022/02/25 06:08:43;;;;;;;1.90;1.80;;;;;;;2.85;69.51;99179.77;442879;1270;142150;-67
2022/02/25 06:18:49;;;;;;;3.40;2.10;;;;;;;2.91;69.48;99197.50;446400;1270;144270;-66
2022/02/25 06:28:55;;;;;;;2.70;2.40;;;;;;;2.97;69.07;99204.39;447212;1270;141003;-67
2022/02/25 06:39:01;;;;;;;2.80;1.90;;;;;;;3.01;68.90;99226.19;446350;1271;142475;-64
2022/02/25 06:49:07;;;;;;;1.90;1.60;;;;;;;3.17;68.49;99246.65;446882;1270;145804;-66
2022/02/25 06:59:13;;;;;;;2.50;2.30;;;;;;;3.93;67.79;99278.95;447140;1270;142296;-67
2022/02/25 07:09:19;;;;;;;2.10;1.90;;;;;;;7.22;65.63;99292.02;446489;1270;142518;-67
2022/02/25 07:19:24;;;;;;;2.60;1.20;;;;;;;7.91;61.50;99314.65;447192;1269;141841;-67
2022/02/25 07:29:30;;;;;;;2.30;1.50;;;;;;;8.74;59.49;99332.31;447172;1270;141356;-67
2022/02/25 07:39:36;;;;;;;1.90;1.60;;;;;;;10.15;56.42;99345.87;446529;1269;142795;-66
2022/02/25 07:49:44;;;;;;;1.60;1.30;;;;;;;11.91;53.88;99353.75;445416;1270;141955;-68
2022/02/25 07:59:50;;;;;;;1.10;0.80;;;;;;;15.45;49.65;99355.88;437029;1270;143404;-65
2022/02/25 08:09:58;;;;;;;2.40;1.30;;;;;;;15.92;45.51;99370.34;446446;1268;142765;-66
2022/02/25 08:20:09;;;;;;;2.00;1.30;;;;;;;11.31;46.31;99391.98;447345;1270;141657;-66
2022/02/25 08:30:15;;;;;;;3.20;1.50;;;;;;;7.92;48.94;99404.21;441006;1270;141548;-69
2022/02/25 08:40:22;;;;;;;4.10;1.50;;;;;;;6.21;51.16;99421.66;447361;1270;140413;-63
2022/02/25 08:50:28;;;;;;;4.20;1.40;;;;;;;6.68;52.17;99422.38;447378;1269;140587;-63
2022/02/25 09:00:33;;;;;;;3.50;1.20;;;;;;;8.09;49.83;99430.36;442218;1270;142170;-62
2022/02/25 09:10:41;;;;;;;3.30;1.10;;;;;;;8.27;48.79;99437.44;447356;1270;141473;-61
2022/02/25 09:20:48;;;;;;;3.80;1.30;;;;;;;6.29;50.26;99465.63;434712;1270;141655;-59
2022/02/25 09:30:54;;;;;;;4.50;1.70;;;;;;;5.96;51.44;99479.88;432391;1270;141490;-64
2022/02/25 09:41:00;;;;;;;2.40;2.10;;;;;;;5.52;52.32;99503.54;447410;1270;140786;-64
2022/02/25 09:51:06;;;;;;;9.00;4.70;;;;;;;5.16;53.50;99515.84;442379;1270;141432;-64
2022/02/25 10:01:13;;;;;;;8.00;2.20;;;;;;;5.18;54.10;99527.94;438118;1271;140708;-62
2022/02/25 10:11:19;;;;;;;3.30;2.00;;;;;;;5.54;53.82;99534.51;441730;1270;141775;-62
2022/02/25 10:21:25;;;;;;;4.10;1.60;;;;;;;6.01;52.84;99538.73;438913;1270;140857;-61
2022/02/25 10:31:33;;;;;;;3.50;1.50;;;;;;;6.41;52.26;99541.76;443245;1269;141213;-62
2022/02/25 10:41:42;;;;;;;3.80;1.30;;;;;;;6.64;51.41;99544.66;447405;1270;140521;-63
2022/02/25 10:51:48;;;;;;;3.90;1.80;;;;;;;6.59;51.19;99550.83;440913;1270;141039;-63
2022/02/25 11:01:54;;;;;;;3.30;2.10;;;;;;;6.33;52.15;99557.06;443816;1269;140564;-61
2022/02/25 11:12:02;;;;;;;5.30;2.20;;;;;;;6.34;52.49;99557.88;446740;1270;143649;-64
2022/02/25 11:22:14;;;;;;;7.80;3.30;;;;;;;6.18;52.38;99569.40;447209;1271;141519;-65
2022/02/25 11:32:25;;;;;;;6.80;2.60;;;;;;;6.18;52.97;99567.15;446312;1270;142079;-60
2022/02/25 11:42:51;;;;;;;4.90;1.90;;;;;;;6.34;52.73;99554.97;430681;1271;141199;-64
2022/02/25 11:53:01;;;;;;;6.80;1.80;;;;;;;6.79;51.94;99551.08;447248;1270;141212;-63
2022/02/25 12:03:15;;;;;;;5.40;1.80;;;;;;;6.84;50.86;99552.40;446548;1270;141020;-58
2022/02/25 12:13:28;;;;;;;6.20;1.70;;;;;;;6.78;50.40;99557.20;447238;1271;140775;-60
2022/02/25 12:23:43;;;;;;;6.60;2.50;;;;;;;6.26;50.19;99564.16;435410;1270;142045;-60
2022/02/25 12:33:58;;;;;;;3.20;1.60;;;;;;;6.43;50.29;99561.48;446618;1271;142801;-58
2022/02/25 12:44:06;;;;;;;4.40;1.90;;;;;;;6.20;49.88;99564.80;447299;1270;140966;-67
2022/02/25 12:54:14;;;;;;;6.80;2.10;;;;;;;6.10;50.01;99556.02;446233;1271;141466;-67
2022/02/25 13:04:21;;;;;;;4.80;2.50;;;;;;;5.72;50.28;99565.18;440309;1271;141860;-70
2022/02/25 13:14:32;;;;;;;6.50;2.40;;;;;;;5.60;50.53;99566.91;447278;1271;141628;-74
2022/02/25 13:24:51;;;;;;;2.40;1.80;;;;;;;5.65;49.67;99567.08;436574;1270;140703;-69
2022/02/25 13:34:58;;;;;;;3.60;1.70;;;;;;;5.77;48.83;99571.02;443882;1270;140570;-65
2022/02/25 13:45:05;;;;;;;4.00;1.70;;;;;;;5.93;48.92;99583.91;441827;1271;140799;-69
2022/02/25 13:55:16;;;;;;;5.90;1.90;;;;;;;5.55;48.92;99581.18;447258;1270;141245;-62
2022/02/25 14:05:24;;;;;;;4.60;2.20;;;;;;;5.19;49.59;99589.84;447222;1270;141411;-67
2022/02/25 14:15:31;;;;;;;9.80;2.70;;;;;;;5.02;49.46;99601.80;446595;1271;141082;-59
2022/02/25 14:25:38;;;;;;;7.20;2.60;;;;;;;4.98;49.75;99612.90;434291;1271;140626;-60
2022/02/25 14:35:44;;;;;;;;;;;;;;;5.48;49.81;99617.60;429851;1271;202152;-59
2022/02/25 14:45:50;;;;;;;8.50;1.40;;;;;;;5.86;49.29;99618.96;437854;1271;127390;-62
2022/02/25 14:55:56;;;;;;;5.90;1.80;;;;;;;5.65;48.45;99634.77;447171;1271;140564;-58
2022/02/25 15:06:02;;;;;;;6.30;2.00;;;;;;;5.39;49.10;99647.84;443631;1271;164587;-57
2022/02/25 15:16:08;;;;;;;10.20;2.40;;;;;;;5.18;49.37;99648.67;447364;1271;141335;-60
2022/02/25 15:26:14;;;;;;;5.10;1.60;;;;;;;4.82;49.58;99649.95;447053;1270;141688;-62
2022/02/25 15:36:20;;;;;;;5.60;1.70;;;;;;;4.53;49.85;99660.23;442037;1270;141261;-64
2022/02/25 15:46:26;;;;;;;6.40;1.60;;;;;;;4.42;50.34;99663.92;442166;1271;141353;-64
2022/02/25 15:56:33;;;;;;;10.40;3.10;;;;;;;4.19;51.14;99670.51;447265;1271;141680;-66
2022/02/25 16:06:39;;;;;;;15.90;3.50;;;;;;;3.78;51.52;99688.38;446532;1271;142277;-70
2022/02/25 16:16:45;;;;;;;7.50;1.90;;;;;;;3.33;52.35;99699.05;447133;1271;140583;-66
2022/02/25 16:26:51;;;;;;;6.00;2.10;;;;;;;3.00;52.52;99708.73;444783;1271;141548;-68
2022/02/25 16:36:57;;;;;;;14.20;2.30;;;;;;;2.69;53.05;99721.90;430976;1271;140423;-66
2022/02/25 16:47:03;;;;;;;10.40;3.70;;;;;;;2.45;53.79;99737.98;447002;1271;141003;-60
2022/02/25 16:57:14;;;;;;;10.60;2.90;;;;;;;2.40;54.17;99747.10;446405;1270;141069;-61
2022/02/25 17:07:22;;;;;;;3.60;1.80;;;;;;;2.29;54.71;99767.61;446944;1271;141029;-64
2022/02/25 17:17:28;;;;;;;16.90;6.30;;;;;;;2.33;55.30;99783.94;447160;1271;141257;-60
2022/02/25 17:27:34;;;;;;;43.80;18.50;;;;;;;2.24;55.49;99806.27;435897;1269;141990;-61
2022/02/25 17:37:40;;;;;;;61.80;24.70;;;;;;;2.05;56.13;99821.45;447359;1270;140878;-60
2022/02/25 17:47:47;;;;;;;43.60;19.90;;;;;;;1.72;56.58;99830.52;445723;1270;141301;-60
2022/02/25 17:57:52;;;;;;;52.50;20.60;;;;;;;1.40;57.34;99838.14;446530;1271;142054;-51
2022/02/25 18:07:58;;;;;;;44.00;15.90;;;;;;;1.32;57.90;99846.27;442504;1270;143753;-48
2022/02/25 18:18:10;;;;;;;101.30;38.00;;;;;;;1.30;57.91;99853.20;429019;1271;141748;-53
2022/02/25 18:28:16;;;;;;;102.00;34.30;;;;;;;1.26;58.42;99855.86;437310;1273;143342;-51
2022/02/25 18:38:22;;;;;;;60.10;23.10;;;;;;;1.36;58.59;99862.73;439304;1271;141176;-52
2022/02/25 18:48:29;;;;;;;28.10;11.20;;;;;;;1.42;58.89;99870.54;446229;1271;141214;-55
2022/02/25 18:58:37;;;;;;;43.50;18.30;;;;;;;1.58;58.76;99871.73;447148;1271;140932;-51
2022/02/25 19:08:42;;;;;;;40.20;17.10;;;;;;;1.82;58.77;99870.00;447140;1271;143248;-54
2022/02/25 19:18:49;;;;;;;23.20;9.60;;;;;;;1.97;58.81;99875.67;446360;1271;141753;-52
2022/02/25 19:28:55;;;;;;;21.20;13.20;;;;;;;2.20;58.63;99879.61;447074;1271;141874;-53
2022/02/25 19:39:01;;;;;;;29.60;15.00;;;;;;;2.45;58.23;99889.20;446274;1271;142042;-51
2022/02/25 19:49:07;;;;;;;27.80;17.40;;;;;;;2.62;57.80;99895.65;447123;1271;141238;-54
2022/02/25 19:59:13;;;;;;;25.60;17.10;;;;;;;2.75;57.48;99896.68;446956;1271;141196;-61
2022/02/25 20:09:33;;;;;;;22.30;12.90;;;;;;;2.74;57.33;99898.30;445842;1273;141618;-60
2022/02/25 20:19:41;;;;;;;17.90;11.50;;;;;;;2.67;57.23;99904.52;447081;1271;142437;-59
2022/02/25 20:29:47;;;;;;;18.20;11.30;;;;;;;2.54;57.43;99907.27;446134;1271;142005;-59
2022/02/25 20:39:53;;;;;;;22.90;13.20;;;;;;;2.46;57.50;99917.67;446223;1271;141434;-59
2022/02/25 20:49:59;;;;;;;30.00;16.60;;;;;;;2.45;57.68;99923.23;447050;1271;141252;-59
2022/02/25 21:00:12;;;;;;;18.80;9.70;;;;;;;2.42;57.76;99936.27;445975;1271;143122;-59
2022/02/25 21:10:17;;;;;;;25.20;11.00;;;;;;;2.36;57.69;99946.42;446691;1272;141154;-58
2022/02/25 21:20:24;;;;;;;17.50;8.50;;;;;;;2.29;57.75;99956.44;441550;1272;140922;-59
2022/02/25 21:30:31;;;;;;;18.40;9.90;;;;;;;2.28;57.77;99964.41;446554;1270;142112;-60
2022/02/25 21:40:38;;;;;;;13.00;8.30;;;;;;;2.29;57.73;99973.03;447011;1271;141816;-60
2022/02/25 21:50:44;;;;;;;10.10;6.30;;;;;;;2.30;57.86;99977.33;444700;1270;141711;-60
2022/02/25 22:00:50;;;;;;;12.90;6.90;;;;;;;2.28;57.68;99979.63;446683;1269;142012;-61
2022/02/25 22:10:56;;;;;;;11.20;6.00;;;;;;;2.23;57.78;99988.55;447065;1269;142060;-61
2022/02/25 22:21:02;;;;;;;9.20;5.90;;;;;;;2.15;57.94;99997.70;433905;1270;140889;-61
2022/02/25 22:31:09;;;;;;;6.80;5.20;;;;;;;2.03;58.07;100000.73;444510;1271;140579;-61
2022/02/25 22:41:16;;;;;;;10.30;5.40;;;;;;;1.91;58.40;100001.52;435960;1273;141057;-60
2022/02/25 23:01:45;;;;;;;13.00;6.50;;;;;;;1.78;58.70;100008.01;446967;1271;140866;-61
2022/02/25 23:11:52;;;;;;;14.90;7.80;;;;;;;1.77;58.92;100010.77;447133;1271;142339;-61
2022/02/25 23:22:01;;;;;;;17.70;8.20;;;;;;;1.69;58.95;100016.30;446069;1271;142382;-61
2022/02/25 23:32:09;;;;;;;13.60;7.50;;;;;;;1.58;59.23;100016.70;447211;1271;142103;-63
2022/02/25 23:42:15;;;;;;;16.60;7.20;;;;;;;1.43;59.64;100026.13;445976;1273;142032;-60
2022/02/25 23:52:21;;;;;;;17.30;8.10;;;;;;;1.24;59.96;100035.80;446718;1271;141867;-61
